Time;durP1;ratioP1;P1;durP2;ratioP2;P2;SDS_P1;SDS_P2;PMS_P1;PMS_P2;Temp;Humidity;BMP_temperature;BMP_pressure;BME280_temperature;BME280_humidity;BME280_pressure;Samples;Min_cycle;Max_cycle;Signal;HPM_P1;HPM_P2
2022/02/28 00:00:18;;;;;;;1.90;1.20;;;9.30;99.90;;;;;;6348268;22;20549;-93
2022/02/28 00:02:51;;;;;;;2.93;1.00;;;9.30;99.90;;;;;;6344321;22;20242;-93
2022/02/28 00:05:24;;;;;;;1.67;0.93;;;9.30;99.90;;;;;;6345292;22;20246;-93
2022/02/28 00:07:55;;;;;;;1.13;0.93;;;9.20;99.90;;;;;;6354065;22;20163;-94
2022/02/28 00:10:25;;;;;;;2.13;1.20;;;9.20;99.90;;;;;;6357135;22;20174;-95
2022/02/28 00:12:56;;;;;;;1.87;1.07;;;9.20;99.90;;;;;;6343356;22;20166;-95
2022/02/28 00:15:27;;;;;;;2.17;1.10;;;9.30;99.90;;;;;;6343454;22;20209;-95
2022/02/28 00:17:59;;;;;;;1.30;0.90;;;9.30;99.90;;;;;;6317209;22;20215;-95
2022/02/28 00:20:35;;;;;;;1.70;0.93;;;9.30;99.90;;;;;;6347265;22;20201;-94
2022/02/28 00:23:08;;;;;;;2.10;1.17;;;9.30;99.90;;;;;;6343937;22;20532;-93
2022/02/28 00:25:40;;;;;;;1.63;1.17;;;9.20;99.90;;;;;;6348308;22;20189;-95
2022/02/28 00:28:11;;;;;;;1.73;1.40;;;9.30;99.90;;;;;;6351808;22;20173;-95
2022/02/28 00:30:43;;;;;;;2.63;1.50;;;9.20;99.90;;;;;;6358841;22;20161;-95
2022/02/28 00:33:14;;;;;;;2.83;1.60;;;9.20;99.90;;;;;;6359919;22;20173;-94
2022/02/28 00:38:24;;;;;;;2.10;1.90;;;9.30;99.90;;;;;;6355948;22;20201;-95
2022/02/28 00:40:55;;;;;;;2.70;2.00;;;9.30;99.90;;;;;;6359375;22;20169;-95
2022/02/28 00:43:26;;;;;;;2.47;2.00;;;9.30;99.90;;;;;;6358230;22;20209;-93
2022/02/28 00:45:58;;;;;;;2.87;2.20;;;9.20;99.90;;;;;;6361870;22;20169;-96
2022/02/28 00:48:31;;;;;;;4.77;2.07;;;9.10;99.90;;;;;;6363940;22;20161;-94
2022/02/28 00:51:04;;;;;;;2.27;1.80;;;9.00;99.90;;;;;;6364174;22;20161;-94
2022/02/28 00:53:38;;;;;;;1.80;1.50;;;8.90;99.90;;;;;;6362786;22;20154;-93
2022/02/28 00:56:08;;;;;;;1.50;1.30;;;8.80;99.90;;;;;;6365548;22;20158;-92
2022/02/28 00:58:40;;;;;;;2.23;1.70;;;8.70;99.90;;;;;;6339612;22;20161;-94
2022/02/28 01:01:12;;;;;;;1.57;1.40;;;8.60;99.90;;;;;;6366125;22;20166;-94
2022/02/28 01:03:46;;;;;;;1.97;1.40;;;8.50;99.90;;;;;;6363672;22;20203;-95
2022/02/28 01:06:18;;;;;;;2.70;1.40;;;8.40;99.90;;;;;;6360933;22;20199;-95
2022/02/28 01:08:51;;;;;;;2.40;1.70;;;8.40;99.90;;;;;;6358784;22;20180;-94
2022/02/28 01:11:23;;;;;;;2.13;1.83;;;8.40;99.90;;;;;;6360250;22;20154;-94
2022/02/28 01:13:55;;;;;;;2.30;1.50;;;8.20;99.90;;;;;;6332389;22;20169;-93
2022/02/28 01:16:26;;;;;;;3.30;1.50;;;8.20;99.90;;;;;;6358400;22;20173;-93
2022/02/28 01:18:57;;;;;;;2.53;1.43;;;8.10;99.90;;;;;;6329449;22;20177;-95
2022/02/28 01:21:28;;;;;;;3.53;1.60;;;8.00;99.90;;;;;;6357699;22;20166;-94
2022/02/28 01:24:02;;;;;;;1.77;1.40;;;8.00;99.90;;;;;;6357532;22;20248;-95
2022/02/28 01:26:34;;;;;;;2.27;1.50;;;8.00;99.90;;;;;;6357877;22;20161;-94
2022/02/28 01:29:05;;;;;;;1.70;1.10;;;7.90;99.90;;;;;;6343127;22;20166;-95
2022/02/28 01:31:37;;;;;;;1.77;1.20;;;7.90;99.90;;;;;;6344676;22;20197;-94
2022/02/28 01:34:08;;;;;;;2.87;1.30;;;7.80;99.90;;;;;;6350117;22;20174;-94
2022/02/28 01:36:39;;;;;;;1.00;0.90;;;7.70;99.90;;;;;;6342231;22;20286;-95
2022/02/28 01:39:11;;;;;;;1.50;1.13;;;7.70;99.90;;;;;;6341935;22;20170;-95
2022/02/28 01:41:44;;;;;;;1.80;1.23;;;7.70;99.90;;;;;;6349616;22;20162;-95
2022/02/28 01:44:15;;;;;;;2.03;1.43;;;7.70;99.90;;;;;;6347383;22;20301;-95
2022/02/28 01:46:46;;;;;;;1.83;1.50;;;7.60;99.90;;;;;;6359982;22;20191;-95
2022/02/28 01:49:18;;;;;;;1.70;1.60;;;7.60;99.90;;;;;;6354143;22;20173;-95
2022/02/28 01:51:49;;;;;;;1.40;1.30;;;7.60;99.90;;;;;;6344300;22;20182;-96
2022/02/28 01:54:22;;;;;;;4.00;1.60;;;7.50;99.90;;;;;;6355392;22;20189;-95
2022/02/28 01:56:53;;;;;;;3.17;1.30;;;7.50;99.90;;;;;;6344145;22;20236;-92
2022/02/28 01:59:24;;;;;;;2.23;1.23;;;7.50;99.90;;;;;;6359454;22;20165;-94
2022/02/28 02:01:56;;;;;;;2.03;1.50;;;7.50;99.90;;;;;;6358125;22;20177;-94
2022/02/28 02:04:27;;;;;;;3.20;1.90;;;7.50;99.90;;;;;;6357514;22;20193;-93
2022/02/28 02:06:59;;;;;;;4.80;1.80;;;7.50;99.90;;;;;;6350871;22;20487;-94
2022/02/28 02:09:34;;;;;;;4.10;1.60;;;7.50;99.90;;;;;;6345594;22;20194;-92
2022/02/28 02:12:08;;;;;;;6.63;1.90;;;7.50;99.90;;;;;;6349185;22;20185;-93
2022/02/28 02:14:39;;;;;;;3.23;2.00;;;7.40;99.90;;;;;;6343216;22;20174;-93
2022/02/28 02:17:10;;;;;;;3.93;2.47;;;7.40;99.90;;;;;;6354330;22;20173;-93
2022/02/28 02:19:42;;;;;;;3.97;1.97;;;7.50;99.90;;;;;;6353989;22;20215;-93
2022/02/28 02:22:15;;;;;;;2.00;1.40;;;7.60;99.90;;;;;;6352550;22;20265;-94
2022/02/28 02:24:47;;;;;;;4.57;1.77;;;7.50;99.90;;;;;;6357891;22;20193;-95
2022/02/28 02:27:20;;;;;;;1.87;1.30;;;7.40;99.90;;;;;;6357073;22;20245;-93
2022/02/28 02:29:51;;;;;;;2.00;0.90;;;7.40;99.90;;;;;;6354333;22;20174;-94
2022/02/28 02:32:22;;;;;;;1.60;0.90;;;7.40;99.90;;;;;;6357330;22;20170;-94
2022/02/28 02:34:54;;;;;;;0.70;0.70;;;7.40;99.90;;;;;;6356541;22;20169;-94
2022/02/28 02:37:28;;;;;;;2.17;0.83;;;7.40;99.90;;;;;;6356982;22;20182;-94
2022/02/28 02:39:59;;;;;;;1.00;0.90;;;7.40;99.90;;;;;;6329114;22;20184;-94
2022/02/28 02:42:30;;;;;;;1.17;0.90;;;7.40;99.90;;;;;;6354539;22;20550;-93
2022/02/28 02:45:01;;;;;;;0.90;0.80;;;7.40;99.90;;;;;;6351882;22;20194;-93
2022/02/28 02:47:32;;;;;;;1.03;0.77;;;7.40;99.90;;;;;;6356403;22;20166;-93
2022/02/28 02:50:04;;;;;;;1.87;1.20;;;7.40;99.90;;;;;;6357949;22;20163;-93
2022/02/28 02:52:37;;;;;;;3.63;0.90;;;7.40;99.90;;;;;;6361025;22;20162;-93
2022/02/28 02:55:09;;;;;;;2.17;1.13;;;7.40;99.90;;;;;;6358949;22;20181;-96
2022/02/28 02:57:41;;;;;;;1.53;1.10;;;7.40;99.90;;;;;;6331811;22;20190;-95
2022/02/28 03:00:13;;;;;;;2.13;1.17;;;7.40;99.90;;;;;;6358435;22;20181;-94
2022/02/28 03:02:45;;;;;;;1.77;1.40;;;7.40;99.90;;;;;;6359911;22;20177;-93
2022/02/28 03:05:17;;;;;;;2.80;1.57;;;7.30;99.90;;;;;;6357617;22;20208;-95
2022/02/28 03:07:50;;;;;;;1.60;0.90;;;7.30;99.90;;;;;;6360999;22;20157;-94
2022/02/28 03:10:24;;;;;;;1.30;1.00;;;7.30;99.90;;;;;;6336538;22;20269;-93
2022/02/28 03:12:55;;;;;;;1.00;0.90;;;7.30;99.90;;;;;;6269879;22;20263;-91
2022/02/28 03:15:29;;;;;;;2.00;1.10;;;7.30;99.90;;;;;;6366804;22;20184;-92
2022/02/28 03:18:02;;;;;;;3.00;0.90;;;7.30;99.90;;;;;;6363831;22;20200;-93
2022/02/28 03:20:34;;;;;;;1.43;0.97;;;7.30;99.90;;;;;;6363770;22;20173;-93
2022/02/28 03:23:08;;;;;;;1.80;1.00;;;7.30;99.90;;;;;;6361351;22;20169;-94
2022/02/28 03:25:39;;;;;;;1.07;0.90;;;7.30;99.90;;;;;;6352076;22;20202;-93
2022/02/28 03:28:10;;;;;;;1.60;1.00;;;7.30;99.90;;;;;;6345383;22;20177;-95
2022/02/28 03:30:41;;;;;;;1.03;0.93;;;7.40;99.90;;;;;;6358120;22;20484;-95
2022/02/28 03:33:13;;;;;;;1.83;0.93;;;7.40;99.90;;;;;;6359699;22;20178;-92
2022/02/28 03:35:44;;;;;;;1.23;1.00;;;7.40;99.90;;;;;;6355129;22;20166;-95
2022/02/28 03:38:17;;;;;;;1.70;1.13;;;7.40;99.90;;;;;;6359949;22;20184;-91
2022/02/28 03:40:49;;;;;;;2.90;1.13;;;7.40;99.90;;;;;;6349446;22;20162;-94
2022/02/28 03:43:20;;;;;;;1.37;0.90;;;7.40;99.90;;;;;;6356271;22;20174;-94
2022/02/28 03:45:52;;;;;;;3.27;0.77;;;7.40;99.90;;;;;;6357857;22;20205;-94
2022/02/28 03:48:23;;;;;;;5.90;1.00;;;7.40;99.90;;;;;;6356086;22;20166;-94
2022/02/28 03:50:55;;;;;;;2.53;1.03;;;7.50;99.90;;;;;;6357190;22;20635;-95
2022/02/28 03:53:28;;;;;;;2.70;1.57;;;7.50;99.90;;;;;;6355528;22;20166;-93
2022/02/28 03:56:01;;;;;;;2.03;1.10;;;7.50;99.90;;;;;;6329393;22;20172;-94
2022/02/28 03:58:35;;;;;;;2.03;0.97;;;7.50;99.90;;;;;;6357693;22;20173;-93
2022/02/28 04:01:08;;;;;;;1.30;0.90;;;7.50;99.90;;;;;;6353046;22;20172;-95
2022/02/28 04:03:41;;;;;;;2.10;1.00;;;7.50;99.90;;;;;;6359635;22;20165;-94
2022/02/28 04:06:12;;;;;;;3.73;1.20;;;7.60;99.90;;;;;;6358878;22;20211;-94
2022/02/28 04:08:46;;;;;;;2.40;1.30;;;7.60;99.90;;;;;;6365325;22;20157;-95
2022/02/28 04:11:18;;;;;;;3.13;1.13;;;7.60;99.90;;;;;;6366573;22;20165;-94
2022/02/28 04:13:49;;;;;;;2.20;1.23;;;7.60;99.90;;;;;;6364757;22;20187;-91
2022/02/28 04:16:20;;;;;;;2.03;0.83;;;7.70;99.90;;;;;;6363316;22;20166;-95
2022/02/28 04:18:51;;;;;;;1.83;0.80;;;7.60;99.90;;;;;;6353949;22;20181;-94
2022/02/28 04:21:22;;;;;;;1.97;0.80;;;7.70;99.90;;;;;;6351536;22;20170;-95
2022/02/28 04:23:54;;;;;;;1.40;0.90;;;7.70;99.90;;;;;;6351820;22;20612;-94
2022/02/28 04:26:25;;;;;;;3.27;1.00;;;7.70;99.90;;;;;;6350511;22;20542;-94
2022/02/28 04:28:56;;;;;;;1.20;1.10;;;7.70;99.90;;;;;;6350011;22;20192;-94
2022/02/28 04:31:28;;;;;;;0.87;0.80;;;7.70;99.90;;;;;;6350955;22;20176;-94
2022/02/28 04:33:58;;;;;;;1.70;1.00;;;7.70;99.90;;;;;;6360640;22;20185;-93
2022/02/28 04:36:33;;;;;;;4.33;1.00;;;7.70;99.90;;;;;;6340419;22;20185;-93
2022/02/28 04:39:05;;;;;;;1.77;0.60;;;7.70;99.90;;;;;;6366774;22;20169;-93
2022/02/28 04:41:36;;;;;;;1.47;1.00;;;7.80;99.90;;;;;;6366270;22;20168;-93
2022/02/28 04:44:07;;;;;;;1.73;0.90;;;7.80;99.90;;;;;;6365634;22;20170;-95
2022/02/28 04:46:38;;;;;;;1.07;0.47;;;7.80;99.90;;;;;;6366441;22;20196;-94
2022/02/28 04:49:09;;;;;;;0.97;0.77;;;7.80;99.90;;;;;;6365899;22;20181;-92
2022/02/28 04:51:40;;;;;;;2.10;0.70;;;7.80;99.90;;;;;;6366491;22;20166;-93
2022/02/28 04:54:12;;;;;;;0.80;0.70;;;7.80;99.90;;;;;;6366034;22;20150;-93
2022/02/28 04:56:43;;;;;;;1.67;1.03;;;7.80;99.90;;;;;;6366276;22;20157;-93
2022/02/28 04:59:14;;;;;;;1.00;0.57;;;7.80;99.90;;;;;;6365041;22;20175;-94
2022/02/28 05:01:44;;;;;;;0.60;0.37;;;7.90;99.90;;;;;;6362882;22;20169;-92
2022/02/28 05:04:16;;;;;;;1.50;0.40;;;7.90;99.90;;;;;;6363892;22;20173;-92
2022/02/28 05:06:47;;;;;;;0.90;0.60;;;7.90;99.90;;;;;;6363636;22;20197;-93
2022/02/28 05:09:19;;;;;;;0.70;0.57;;;7.90;99.90;;;;;;6364310;22;20161;-95
2022/02/28 05:11:50;;;;;;;2.80;0.47;;;7.90;99.90;;;;;;6363209;22;20166;-95
2022/02/28 05:14:21;;;;;;;2.03;0.77;;;7.90;99.90;;;;;;6363709;22;20195;-94
2022/02/28 05:16:53;;;;;;;0.37;0.30;;;7.90;99.90;;;;;;6359918;22;20219;-94
2022/02/28 05:19:25;;;;;;;1.40;0.77;;;7.90;99.90;;;;;;6351648;22;20495;-92
2022/02/28 05:21:56;;;;;;;0.83;0.70;;;7.90;99.90;;;;;;6353776;22;20199;-93
2022/02/28 05:24:33;;;;;;;1.47;0.70;;;7.80;99.90;;;;;;6366076;22;20176;-94
2022/02/28 05:27:09;;;;;;;4.10;0.80;;;7.80;99.90;;;;;;6365691;22;20185;-94
2022/02/28 05:29:39;;;;;;;0.97;0.60;;;7.70;99.90;;;;;;6364372;22;20184;-93
2022/02/28 05:32:11;;;;;;;2.00;0.90;;;7.70;99.90;;;;;;6360319;22;20221;-94
2022/02/28 05:34:41;;;;;;;0.67;0.50;;;7.60;99.90;;;;;;6351015;22;20177;-95
2022/02/28 05:37:12;;;;;;;0.90;0.50;;;7.60;99.90;;;;;;6350738;22;20172;-94
2022/02/28 05:39:47;;;;;;;1.27;0.70;;;7.60;99.90;;;;;;6350326;22;20176;-94
2022/02/28 05:42:18;;;;;;;1.87;0.60;;;7.60;99.90;;;;;;6320435;22;20195;-93
2022/02/28 05:44:49;;;;;;;2.40;0.63;;;7.60;99.90;;;;;;6349179;22;20204;-94
2022/02/28 05:47:20;;;;;;;3.00;0.67;;;7.60;99.90;;;;;;6344609;22;20588;-95
2022/02/28 05:49:51;;;;;;;3.33;0.70;;;7.50;99.90;;;;;;6346354;22;20165;-94
2022/02/28 05:52:22;;;;;;;2.63;0.60;;;7.50;99.90;;;;;;6346275;22;20177;-94
2022/02/28 05:54:57;;;;;;;1.00;0.70;;;7.50;99.90;;;;;;6345464;22;20653;-93
2022/02/28 05:57:27;;;;;;;1.03;0.60;;;7.50;99.90;;;;;;6344650;22;20193;-94
2022/02/28 05:59:58;;;;;;;5.70;0.70;;;7.40;99.90;;;;;;6350606;22;20491;-94
2022/02/28 06:02:29;;;;;;;4.80;0.70;;;7.40;99.90;;;;;;6347750;22;20170;-94
2022/02/28 06:05:00;;;;;;;1.53;0.60;;;7.40;99.90;;;;;;6345996;22;20188;-94
2022/02/28 06:07:31;;;;;;;1.13;0.70;;;7.40;99.90;;;;;;6355209;22;20228;-94
2022/02/28 06:10:04;;;;;;;1.40;0.77;;;7.40;99.90;;;;;;6357461;22;20166;-94
2022/02/28 06:12:35;;;;;;;1.50;0.60;;;7.30;99.90;;;;;;6353327;22;20173;-94
2022/02/28 06:15:26;;;;;;;0.50;0.50;;;7.30;99.90;;;;;;6354346;22;20230;-94
2022/02/28 06:17:59;;;;;;;0.53;0.53;;;7.30;99.90;;;;;;6345662;22;20205;-94
2022/02/28 06:20:31;;;;;;;1.37;0.77;;;7.30;99.90;;;;;;6346073;22;20181;-94
2022/02/28 06:23:02;;;;;;;0.87;0.53;;;7.30;99.90;;;;;;6349381;22;20177;-94
2022/02/28 06:25:35;;;;;;;3.30;0.60;;;7.30;99.90;;;;;;6344993;22;20173;-94
2022/02/28 06:28:06;;;;;;;1.20;0.60;;;7.30;99.90;;;;;;6342903;22;20189;-95
2022/02/28 06:30:42;;;;;;;1.50;0.60;;;7.20;99.90;;;;;;6347658;22;20162;-95
2022/02/28 06:33:13;;;;;;;1.00;0.53;;;7.20;99.90;;;;;;6343552;22;20181;-95
2022/02/28 06:35:48;;;;;;;3.87;0.63;;;7.20;99.90;;;;;;6343265;22;20174;-94
2022/02/28 06:38:20;;;;;;;1.80;0.60;;;7.20;99.90;;;;;;6342695;22;20173;-94
2022/02/28 06:40:53;;;;;;;0.57;0.50;;;7.30;99.90;;;;;;6342469;22;20165;-93
2022/02/28 06:43:24;;;;;;;1.27;0.70;;;7.30;99.90;;;;;;6343118;22;20185;-92
2022/02/28 06:45:56;;;;;;;1.63;0.60;;;7.30;99.90;;;;;;6343085;22;20197;-94
2022/02/28 06:48:29;;;;;;;2.03;0.60;;;7.30;99.90;;;;;;6340703;22;20207;-93
2022/02/28 06:51:01;;;;;;;0.77;0.60;;;7.30;99.90;;;;;;6342893;22;20166;-93
2022/02/28 06:53:33;;;;;;;0.90;0.50;;;7.30;99.90;;;;;;6343352;22;20177;-94
2022/02/28 06:56:06;;;;;;;1.03;0.60;;;7.40;99.90;;;;;;6342809;22;20173;-93
2022/02/28 06:58:39;;;;;;;2.13;0.73;;;7.40;99.90;;;;;;6342592;22;20201;-94
2022/02/28 07:01:11;;;;;;;1.20;0.60;;;7.50;99.90;;;;;;6343180;22;20230;-93
2022/02/28 07:03:42;;;;;;;1.90;0.70;;;7.50;99.90;;;;;;6342866;22;20581;-93
2022/02/28 07:06:14;;;;;;;1.60;0.70;;;7.60;99.90;;;;;;6342326;22;20174;-93
2022/02/28 07:08:45;;;;;;;2.20;0.80;;;7.80;99.90;;;;;;6342692;22;20193;-94
2022/02/28 07:11:17;;;;;;;2.40;0.80;;;8.10;99.90;;;;;;6345656;22;20184;-94
2022/02/28 07:13:49;;;;;;;2.47;0.60;;;8.10;99.90;;;;;;6342045;22;20196;-93
2022/02/28 07:16:20;;;;;;;1.47;0.70;;;8.10;99.90;;;;;;6344853;22;20209;-94
2022/02/28 07:18:51;;;;;;;0.60;0.50;;;8.20;99.90;;;;;;6342056;22;20206;-94
2022/02/28 07:21:21;;;;;;;3.13;0.97;;;8.20;99.90;;;;;;6345209;22;20489;-94
2022/02/28 07:23:57;;;;;;;1.47;0.53;;;8.20;99.90;;;;;;6345370;22;20169;-93
2022/02/28 07:26:30;;;;;;;2.70;0.80;;;8.30;99.90;;;;;;6345733;22;20296;-93
2022/02/28 07:29:01;;;;;;;2.43;0.60;;;8.40;99.90;;;;;;6341781;22;20169;-93
2022/02/28 07:31:37;;;;;;;1.23;0.83;;;8.50;99.90;;;;;;6343134;22;20172;-92
2022/02/28 07:34:09;;;;;;;1.43;0.80;;;8.50;99.90;;;;;;6347375;22;20185;-94
2022/02/28 07:36:40;;;;;;;1.10;0.60;;;8.50;99.90;;;;;;6343360;22;20211;-94
2022/02/28 07:39:11;;;;;;;3.10;0.70;;;8.50;99.90;;;;;;6343338;22;20170;-94
2022/02/28 07:41:45;;;;;;;2.57;0.73;;;8.50;99.90;;;;;;6364194;22;20168;-96
2022/02/28 07:44:17;;;;;;;0.97;0.57;;;8.50;99.90;;;;;;6364775;22;20177;-93
2022/02/28 07:49:22;;;;;;;3.83;0.90;;;8.60;99.90;;;;;;6315855;22;20190;-94
2022/02/28 07:51:52;;;;;;;3.50;0.57;;;8.60;99.90;;;;;;6314678;22;20205;-92
2022/02/28 07:54:24;;;;;;;3.07;0.90;;;8.70;99.90;;;;;;6313421;22;20220;-93
2022/02/28 07:56:56;;;;;;;1.87;0.90;;;8.70;99.90;;;;;;6311613;22;20265;-93
2022/02/28 07:59:28;;;;;;;6.50;1.00;;;8.70;99.90;;;;;;6288175;22;20182;-92
2022/02/28 08:01:58;;;;;;;2.37;0.90;;;8.80;99.90;;;;;;6312884;22;20174;-93
2022/02/28 08:04:29;;;;;;;1.67;0.70;;;8.80;99.90;;;;;;6311447;22;20217;-94
2022/02/28 08:07:00;;;;;;;1.57;0.70;;;8.80;99.90;;;;;;6314007;22;20151;-93
2022/02/28 08:09:31;;;;;;;1.40;0.70;;;8.80;99.90;;;;;;6311352;22;20205;-94
2022/02/28 08:12:06;;;;;;;1.77;0.67;;;8.90;99.90;;;;;;6310628;22;20660;-92
2022/02/28 08:14:39;;;;;;;1.70;0.70;;;8.90;99.90;;;;;;6310675;22;20598;-95
2022/02/28 08:17:11;;;;;;;0.40;0.40;;;9.10;99.90;;;;;;6312310;22;20228;-93
2022/02/28 08:19:42;;;;;;;1.77;0.43;;;9.10;99.90;;;;;;6313476;22;20178;-92
2022/02/28 08:22:19;;;;;;;0.73;0.40;;;9.10;99.90;;;;;;6313170;22;20178;-93
2022/02/28 08:24:53;;;;;;;1.07;0.47;;;9.20;99.90;;;;;;6310569;22;20174;-92
2022/02/28 08:27:26;;;;;;;1.40;0.57;;;9.20;99.90;;;;;;6311088;22;20229;-93
2022/02/28 08:29:57;;;;;;;1.20;0.60;;;9.30;99.90;;;;;;6312463;22;20224;-92
2022/02/28 08:32:28;;;;;;;1.03;0.60;;;9.30;99.90;;;;;;6310369;22;20219;-93
2022/02/28 08:34:59;;;;;;;1.10;0.60;;;9.30;99.90;;;;;;6311239;22;20170;-93
2022/02/28 08:37:30;;;;;;;2.27;0.70;;;9.40;99.90;;;;;;6286331;22;20182;-94
2022/02/28 08:40:01;;;;;;;1.53;0.57;;;9.30;99.90;;;;;;6315418;22;20170;-94
2022/02/28 08:42:33;;;;;;;1.03;0.60;;;9.30;99.90;;;;;;6318706;22;20167;-93
2022/02/28 08:45:06;;;;;;;2.73;0.53;;;9.30;99.90;;;;;;6321697;22;20175;-94
2022/02/28 08:47:37;;;;;;;1.77;0.70;;;9.30;99.90;;;;;;6325875;22;20236;-93
2022/02/28 08:50:10;;;;;;;2.00;0.67;;;9.30;99.90;;;;;;6311910;22;20178;-93
2022/02/28 08:52:40;;;;;;;0.50;0.30;;;9.30;99.90;;;;;;6310785;22;20257;-93
2022/02/28 08:55:12;;;;;;;2.17;0.60;;;9.30;99.90;;;;;;6310336;22;20696;-92
2022/02/28 08:57:44;;;;;;;1.37;0.77;;;9.30;99.90;;;;;;6309694;22;20198;-93
2022/02/28 09:00:16;;;;;;;5.20;0.87;;;9.30;99.90;;;;;;6311094;22;20165;-93
2022/02/28 09:02:47;;;;;;;1.67;0.67;;;9.30;99.90;;;;;;6310957;22;20214;-94
2022/02/28 09:05:18;;;;;;;2.57;0.53;;;9.30;99.90;;;;;;6310056;22;20220;-93
2022/02/28 09:07:49;;;;;;;0.60;0.30;;;9.20;99.90;;;;;;6308511;22;20644;-94
2022/02/28 09:10:21;;;;;;;2.00;0.60;;;9.30;99.90;;;;;;6310449;22;20206;-94
2022/02/28 09:12:54;;;;;;;3.10;0.50;;;9.30;99.90;;;;;;6310586;22;20202;-93
2022/02/28 09:15:26;;;;;;;2.00;0.50;;;9.30;99.90;;;;;;6317992;22;20225;-93
2022/02/28 09:17:58;;;;;;;0.93;0.43;;;9.30;99.90;;;;;;6316816;22;20209;-94
2022/02/28 09:20:28;;;;;;;2.27;0.60;;;9.20;99.90;;;;;;6313489;22;20174;-93
2022/02/28 09:22:59;;;;;;;1.83;0.40;;;9.20;99.90;;;;;;6312474;22;20623;-94
2022/02/28 09:25:30;;;;;;;4.50;0.67;;;9.20;99.90;;;;;;6324544;22;20174;-93
2022/02/28 09:28:03;;;;;;;1.70;0.50;;;9.20;99.90;;;;;;6329514;22;20245;-96
2022/02/28 09:30:34;;;;;;;1.67;0.50;;;9.20;99.90;;;;;;6325202;22;20167;-94
2022/02/28 09:33:07;;;;;;;6.93;0.40;;;9.20;99.90;;;;;;6322772;22;20173;-94
2022/02/28 09:35:38;;;;;;;1.67;0.50;;;9.20;99.90;;;;;;6333932;22;20186;-95
2022/02/28 09:38:09;;;;;;;1.67;0.40;;;9.10;99.90;;;;;;6332002;22;20210;-94
2022/02/28 09:40:46;;;;;;;1.10;0.33;;;9.10;99.90;;;;;;6326528;22;20167;-95
2022/02/28 09:43:19;;;;;;;0.60;0.40;;;9.10;99.90;;;;;;6324827;22;20200;-95
2022/02/28 09:45:52;;;;;;;0.90;0.30;;;9.10;99.90;;;;;;6315513;22;20171;-95
2022/02/28 09:48:25;;;;;;;2.27;0.63;;;9.10;99.90;;;;;;6313851;22;20202;-93
2022/02/28 09:50:59;;;;;;;0.70;0.30;;;9.00;99.90;;;;;;6313108;22;20479;-95
2022/02/28 09:53:32;;;;;;;2.00;0.50;;;9.00;99.90;;;;;;6328123;22;20177;-93
2022/02/28 09:56:03;;;;;;;1.33;0.27;;;9.00;99.90;;;;;;6333511;22;20151;-94
2022/02/28 09:58:36;;;;;;;4.47;0.47;;;8.90;99.90;;;;;;6330832;22;20179;-93
2022/02/28 10:01:08;;;;;;;3.33;0.50;;;8.70;99.90;;;;;;6312064;22;20193;-94
2022/02/28 10:03:40;;;;;;;2.37;0.37;;;8.70;99.90;;;;;;6313487;22;20228;-92
2022/02/28 10:06:10;;;;;;;5.60;0.50;;;8.60;99.90;;;;;;6314478;22;20178;-95
2022/02/28 10:08:45;;;;;;;1.50;0.30;;;8.60;99.90;;;;;;6312210;22;20217;-94
2022/02/28 10:11:27;;;;;;;1.00;0.40;;;8.60;99.90;;;;;;6313504;22;20597;-94
2022/02/28 10:14:01;;;;;;;0.40;0.30;;;8.50;99.90;;;;;;6315584;22;20204;-94
2022/02/28 10:16:35;;;;;;;1.07;0.30;;;8.50;99.90;;;;;;6313645;22;20183;-94
2022/02/28 10:19:08;;;;;;;2.97;0.40;;;8.50;99.90;;;;;;6311111;22;20217;-94
2022/02/28 10:21:41;;;;;;;1.23;0.40;;;8.40;99.90;;;;;;6311354;22;20200;-95
2022/02/28 10:24:13;;;;;;;1.60;0.30;;;8.40;99.90;;;;;;6312759;22;20217;-94
2022/02/28 10:26:46;;;;;;;3.77;0.30;;;8.40;99.90;;;;;;6313260;22;20174;-94
2022/02/28 10:29:20;;;;;;;0.60;0.20;;;8.30;99.90;;;;;;6312216;22;20218;-93
2022/02/28 10:31:58;;;;;;;1.70;0.30;;;8.30;99.90;;;;;;6311357;22;20253;-94
2022/02/28 10:34:30;;;;;;;1.80;0.30;;;8.30;99.90;;;;;;6311073;22;20636;-94
2022/02/28 10:37:06;;;;;;;0.30;0.20;;;8.30;99.90;;;;;;6310413;22;20178;-93
2022/02/28 10:39:38;;;;;;;1.10;0.20;;;8.20;99.90;;;;;;6313434;22;20170;-93
2022/02/28 10:42:12;;;;;;;0.73;0.17;;;8.30;99.90;;;;;;6320848;22;20182;-93
2022/02/28 10:44:50;;;;;;;0.20;0.20;;;8.20;99.90;;;;;;6325870;22;20230;-92
2022/02/28 10:47:22;;;;;;;0.20;0.20;;;8.20;99.90;;;;;;6312161;22;20595;-94
2022/02/28 10:50:00;;;;;;;1.30;0.30;;;8.20;99.90;;;;;;6317054;22;20191;-93
2022/02/28 10:52:31;;;;;;;0.10;0.10;;;8.20;99.90;;;;;;6288744;22;20170;-94
2022/02/28 10:55:06;;;;;;;1.50;0.40;;;8.20;99.90;;;;;;6318276;22;20509;-94
2022/02/28 10:57:37;;;;;;;5.13;0.30;;;8.20;99.90;;;;;;6313453;22;20187;-94
2022/02/28 11:00:14;;;;;;;0.83;0.30;;;8.10;99.90;;;;;;6311617;22;20177;-93
2022/02/28 11:03:07;;;;;;;0.50;0.20;;;8.10;99.90;;;;;;6310741;22;20605;-94
2022/02/28 11:05:52;;;;;;;0.60;0.30;;;8.10;99.90;;;;;;6310860;22;20173;-93
2022/02/28 11:08:23;;;;;;;0.43;0.40;;;8.10;99.90;;;;;;6309261;22;20174;-93
2022/02/28 11:10:57;;;;;;;1.47;0.40;;;8.10;99.90;;;;;;6311654;22;20178;-92
2022/02/28 11:13:31;;;;;;;4.20;0.70;;;8.10;99.90;;;;;;6311842;22;20170;-92
2022/02/28 11:16:05;;;;;;;0.80;0.50;;;8.20;99.90;;;;;;6311142;22;20609;-93
2022/02/28 11:18:36;;;;;;;2.20;0.57;;;8.20;99.90;;;;;;6309949;22;20174;-94
2022/02/28 11:21:09;;;;;;;1.20;0.40;;;8.30;99.90;;;;;;6312083;22;20198;-94
2022/02/28 11:23:40;;;;;;;0.30;0.30;;;8.40;99.90;;;;;;6310195;22;20178;-93
2022/02/28 11:26:14;;;;;;;1.43;0.60;;;8.50;99.90;;;;;;6309682;22;20181;-95
2022/02/28 11:28:45;;;;;;;0.87;0.50;;;8.60;99.90;;;;;;6309335;22;20625;-95
2022/02/28 11:31:19;;;;;;;1.40;0.50;;;8.50;99.90;;;;;;6310975;22;20191;-93
2022/02/28 11:34:00;;;;;;;1.10;0.50;;;8.60;99.90;;;;;;6311673;22;20166;-95
2022/02/28 11:36:47;;;;;;;0.33;0.27;;;8.90;99.90;;;;;;6310712;22;20181;-94
2022/02/28 11:39:18;;;;;;;1.70;0.60;;;9.30;99.90;;;;;;6310699;22;20495;-93
2022/02/28 11:41:50;;;;;;;3.27;0.60;;;9.50;99.90;;;;;;6311000;22;20178;-93
2022/02/28 11:44:20;;;;;;;0.63;0.40;;;9.60;99.90;;;;;;6310547;22;20190;-94
2022/02/28 11:47:02;;;;;;;0.80;0.50;;;9.60;99.90;;;;;;6309733;22;20213;-94
2022/02/28 11:49:54;;;;;;;1.00;0.37;;;9.60;99.90;;;;;;6310811;22;20209;-92
2022/02/28 11:52:35;;;;;;;1.53;0.37;;;9.70;99.90;;;;;;6322777;22;20167;-93
2022/02/28 11:55:12;;;;;;;0.90;0.60;;;9.60;99.90;;;;;;6312650;22;20182;-95
2022/02/28 11:57:55;;;;;;;0.23;0.23;;;9.60;99.90;;;;;;6286472;22;20549;-92
2022/02/28 12:00:47;;;;;;;2.93;0.73;;;9.60;99.90;;;;;;6313780;22;20174;-94
2022/02/28 12:03:30;;;;;;;0.80;0.50;;;9.60;99.90;;;;;;6313228;22;20162;-93
2022/02/28 12:06:03;;;;;;;2.90;0.50;;;9.50;99.90;;;;;;6316124;22;20186;-93
2022/02/28 12:08:39;;;;;;;0.50;0.50;;;9.50;99.90;;;;;;6340932;22;20239;-94
2022/02/28 12:11:20;;;;;;;2.03;0.53;;;9.50;99.90;;;;;;6364856;22;20467;-94
2022/02/28 12:14:02;;;;;;;3.63;0.80;;;9.50;99.90;;;;;;6348932;22;20569;-94
2022/02/28 12:19:40;;;;;;;3.57;0.67;;;9.40;99.90;;;;;;6342105;22;20174;-94
2022/02/28 12:22:10;;;;;;;0.80;0.50;;;9.40;99.90;;;;;;6341422;22;20173;-94
2022/02/28 12:25:05;;;;;;;2.00;0.73;;;9.40;99.90;;;;;;6342377;22;20178;-94
2022/02/28 12:27:42;;;;;;;1.47;0.57;;;9.40;99.90;;;;;;6336143;22;20186;-94
2022/02/28 12:30:43;;;;;;;1.33;0.80;;;9.40;99.90;;;;;;6341801;22;20197;-94
2022/02/28 12:33:16;;;;;;;3.57;0.60;;;9.40;99.90;;;;;;6342035;22;20234;-94
2022/02/28 12:36:00;;;;;;;1.03;0.80;;;9.30;99.90;;;;;;6341436;22;20173;-94
2022/02/28 12:38:32;;;;;;;2.23;0.70;;;9.30;99.90;;;;;;6339246;22;20197;-94
2022/02/28 12:41:05;;;;;;;2.97;0.70;;;9.20;99.90;;;;;;6313734;22;20518;-94
2022/02/28 12:43:36;;;;;;;6.77;0.60;;;9.20;99.90;;;;;;6340837;22;20173;-93
2022/02/28 12:46:10;;;;;;;0.90;0.57;;;9.10;99.90;;;;;;6344995;22;20162;-94
2022/02/28 12:48:45;;;;;;;8.37;0.80;;;9.10;99.90;;;;;;6340117;22;20212;-94
2022/02/28 12:51:20;;;;;;;4.93;0.60;;;9.00;99.90;;;;;;6341001;22;20193;-93
2022/02/28 12:54:03;;;;;;;12.27;1.00;;;9.00;99.90;;;;;;6340393;22;20184;-95
2022/02/28 12:56:39;;;;;;;9.57;1.03;;;9.00;99.90;;;;;;6340277;22;20182;-94
2022/02/28 12:59:10;;;;;;;4.00;1.13;;;8.90;99.90;;;;;;6340063;22;20161;-94
2022/02/28 13:01:43;;;;;;;1.40;0.70;;;8.80;99.90;;;;;;6340611;22;20645;-94
2022/02/28 13:04:14;;;;;;;0.53;0.53;;;8.80;99.90;;;;;;6340759;22;20184;-95
2022/02/28 13:06:47;;;;;;;4.67;0.50;;;8.70;99.90;;;;;;6340125;22;20173;-94
2022/02/28 13:09:19;;;;;;;0.70;0.50;;;8.70;99.90;;;;;;6340251;22;20181;-95
2022/02/28 13:11:53;;;;;;;0.60;0.60;;;8.70;99.90;;;;;;6315090;22;20199;-95
2022/02/28 13:14:25;;;;;;;1.80;0.63;;;8.70;99.90;;;;;;6340608;22;20170;-95
2022/02/28 13:16:57;;;;;;;4.90;0.60;;;8.70;99.90;;;;;;6340047;22;20173;-95
2022/02/28 13:19:30;;;;;;;1.33;0.43;;;8.60;99.90;;;;;;6319161;22;20608;-95
2022/02/28 13:22:06;;;;;;;0.77;0.70;;;8.60;99.90;;;;;;6340877;22;20208;-94
2022/02/28 13:24:41;;;;;;;1.00;0.53;;;8.60;99.90;;;;;;6340556;22;20165;-94
2022/02/28 13:27:13;;;;;;;0.60;0.50;;;8.50;99.90;;;;;;6338835;22;20174;-94
2022/02/28 13:29:45;;;;;;;8.37;0.50;;;8.50;99.90;;;;;;6339909;22;20193;-93
2022/02/28 13:32:18;;;;;;;1.70;0.50;;;8.50;99.90;;;;;;6313348;22;20170;-94
2022/02/28 13:34:50;;;;;;;0.40;0.40;;;8.50;99.90;;;;;;6340361;22;20197;-93